Time,TemperatureF,DewpointF,PressureIn,WindDirection,WindDirectionDegrees,WindSpeedMPH,WindSpeedGustMPH,Humidity,HourlyPrecipIn,Conditions,Clouds,dailyrainin,SolarRadiationWatts/m^2,SoftwareType,DateUTC
2013-08-31 00:02:00,55.0,42.0,-100.00,NW,316,12.0,21.0,61,0.00,,,0.00,0.000000,,2013-08-31 06:02:00,
2013-08-31 00:42:00,54.0,41.0,-100.00,North,352,6.0,16.0,61,0.00,,,0.00,0.000000,,2013-08-31 06:42:00,
2013-08-31 00:52:00,54.0,41.0,-100.00,North,352,6.0,16.0,61,0.00,,,0.00,0.000000,,2013-08-31 06:52:00,
2013-08-31 01:01:00,54.0,41.0,-100.00,North,352,6.0,16.0,61,0.00,,,0.00,0.000000,,2013-08-31 07:01:00,
2013-08-31 01:42:00,54.0,40.0,-100.00,North,353,6.0,12.0,60,0.00,,,0.00,0.000000,,2013-08-31 07:42:00,
2013-08-31 01:52:00,54.0,40.0,-100.00,North,353,6.0,12.0,60,0.00,,,0.00,0.000000,,2013-08-31 07:52:00,
2013-08-31 02:03:00,54.0,40.0,-100.00,North,353,6.0,12.0,60,0.00,,,0.00,0.000000,,2013-08-31 08:03:00,
2013-08-31 02:42:00,53.0,40.0,-100.00,North,356,6.0,9.0,62,0.00,,,0.00,0.000000,,2013-08-31 08:42:00,
2013-08-31 02:52:00,53.0,40.0,-100.00,North,356,6.0,9.0,62,0.00,,,0.00,0.000000,,2013-08-31 08:52:00,
2013-08-31 03:02:00,53.0,40.0,-100.00,North,356,6.0,9.0,62,0.00,,,0.00,0.000000,,2013-08-31 09:02:00,
2013-08-31 03:44:00,53.0,41.0,-100.00,North,3,6.0,9.0,63,0.00,,,0.00,0.000000,,2013-08-31 09:44:00,
2013-08-31 03:53:00,53.0,41.0,-100.00,North,3,6.0,9.0,63,0.00,,,0.00,0.000000,,2013-08-31 09:53:00,
2013-08-31 04:03:00,53.0,41.0,-100.00,North,3,6.0,9.0,63,0.00,,,0.00,0.000000,,2013-08-31 10:03:00,
2013-08-31 04:43:00,52.0,40.0,-100.00,North,358,6.0,9.0,64,0.00,,,0.00,0.000000,,2013-08-31 10:43:00,
2013-08-31 04:53:00,52.0,40.0,-100.00,North,358,6.0,9.0,64,0.00,,,0.00,0.000000,,2013-08-31 10:53:00,
2013-08-31 05:02:00,52.0,40.0,-100.00,North,358,6.0,9.0,64,0.00,,,0.00,0.000000,,2013-08-31 11:02:00,
2013-08-31 05:42:00,52.0,41.0,-100.00,North,8,4.0,7.0,65,0.00,,,0.00,0.000000,,2013-08-31 11:42:00,
2013-08-31 05:52:00,52.0,41.0,-100.00,North,8,4.0,7.0,65,0.00,,,0.00,0.000000,,2013-08-31 11:52:00,
2013-08-31 06:02:00,52.0,41.0,-100.00,North,8,4.0,7.0,65,0.00,,,0.00,0.000000,,2013-08-31 12:02:00,
2013-08-31 06:42:00,51.0,40.0,-100.00,ESE,107,5.0,6.0,66,0.00,,,0.00,0.000000,,2013-08-31 12:42:00,
2013-08-31 06:52:00,51.0,40.0,-100.00,ESE,107,5.0,6.0,66,0.00,,,0.00,0.000000,,2013-08-31 12:52:00,
2013-08-31 07:01:00,51.0,40.0,-100.00,ESE,107,5.0,6.0,66,0.00,,,0.00,0.000000,,2013-08-31 13:01:00,
2013-08-31 07:42:00,50.0,40.0,-100.00,SE,130,7.0,9.0,68,0.00,,,0.00,2.000000,,2013-08-31 13:42:00,
2013-08-31 07:52:00,50.0,40.0,-100.00,SE,130,7.0,9.0,68,0.00,,,0.00,2.000000,,2013-08-31 13:52:00,
2013-08-31 08:01:00,50.0,40.0,-100.00,SE,130,7.0,9.0,68,0.00,,,0.00,2.000000,,2013-08-31 14:01:00,
2013-08-31 08:42:00,54.0,43.0,-100.00,SE,139,9.0,10.0,66,0.00,,,0.00,91.000000,,2013-08-31 14:42:00,
2013-08-31 08:52:00,54.0,43.0,-100.00,SE,139,9.0,10.0,66,0.00,,,0.00,91.000000,,2013-08-31 14:52:00,
2013-08-31 09:01:00,54.0,43.0,-100.00,SE,139,9.0,10.0,66,0.00,,,0.00,91.000000,,2013-08-31 15:01:00,
2013-08-31 09:45:00,57.0,42.0,-100.00,SE,141,9.0,11.0,58,0.00,,,0.00,292.000000,,2013-08-31 15:45:00,
2013-08-31 09:55:00,57.0,42.0,-100.00,SE,141,9.0,11.0,58,0.00,,,0.00,292.000000,,2013-08-31 15:55:00,
2013-08-31 10:04:00,57.0,42.0,-100.00,SE,141,9.0,11.0,58,0.00,,,0.00,292.000000,,2013-08-31 16:04:00,
2013-08-31 10:44:00,61.0,45.0,-100.00,SE,139,7.0,11.0,55,0.00,,,0.00,516.000000,,2013-08-31 16:44:00,
2013-08-31 10:52:00,61.0,45.0,-100.00,SE,139,7.0,11.0,55,0.00,,,0.00,516.000000,,2013-08-31 16:52:00,
2013-08-31 11:02:00,61.0,45.0,-100.00,SE,139,7.0,11.0,55,0.00,,,0.00,516.000000,,2013-08-31 17:02:00,
2013-08-31 11:43:00,63.0,43.0,-100.00,SE,138,7.0,11.0,48,0.00,,,0.00,715.000000,,2013-08-31 17:43:00,
2013-08-31 11:53:00,63.0,43.0,-100.00,SE,138,7.0,11.0,48,0.00,,,0.00,715.000000,,2013-08-31 17:53:00,
2013-08-31 12:02:00,63.0,43.0,-100.00,SE,138,7.0,11.0,48,0.00,,,0.00,715.000000,,2013-08-31 18:02:00,
2013-08-31 12:42:00,67.0,43.0,-100.00,SW,227,5.0,12.0,42,0.00,,,0.00,923.000000,,2013-08-31 18:42:00,
2013-08-31 12:52:00,67.0,43.0,-100.00,SW,227,5.0,12.0,42,0.00,,,0.00,923.000000,,2013-08-31 18:52:00,
2013-08-31 13:01:00,67.0,43.0,-100.00,SW,227,5.0,12.0,42,0.00,,,0.00,923.000000,,2013-08-31 19:01:00,
2013-08-31 13:42:00,68.0,39.0,-100.00,WSW,251,5.0,15.0,34,0.00,,,0.00,1016.000000,,2013-08-31 19:42:00,
2013-08-31 13:52:00,68.0,39.0,-100.00,WSW,251,5.0,15.0,34,0.00,,,0.00,1016.000000,,2013-08-31 19:52:00,
2013-08-31 14:02:00,68.0,39.0,-100.00,WSW,251,5.0,15.0,34,0.00,,,0.00,1016.000000,,2013-08-31 20:02:00,
2013-08-31 14:42:00,69.0,38.0,-100.00,WSW,241,6.0,15.0,32,0.00,,,0.00,983.000000,,2013-08-31 20:42:00,
2013-08-31 14:52:00,69.0,38.0,-100.00,WSW,241,6.0,15.0,32,0.00,,,0.00,983.000000,,2013-08-31 20:52:00,
2013-08-31 15:01:00,69.0,38.0,-100.00,WSW,241,6.0,15.0,32,0.00,,,0.00,983.000000,,2013-08-31 21:01:00,
2013-08-31 15:44:00,74.0,40.0,-100.00,West,271,4.0,12.0,29,0.00,,,0.00,937.000000,,2013-08-31 21:44:00,
2013-08-31 15:54:00,74.0,40.0,-100.00,West,271,4.0,12.0,29,0.00,,,0.00,937.000000,,2013-08-31 21:54:00,
2013-08-31 16:04:00,74.0,40.0,-100.00,West,271,4.0,12.0,29,0.00,,,0.00,937.000000,,2013-08-31 22:04:00,
2013-08-31 16:43:00,74.0,36.0,-100.00,WNW,286,7.0,16.0,25,0.00,,,0.00,842.000000,,2013-08-31 22:43:00,
2013-08-31 16:53:00,74.0,36.0,-100.00,WNW,286,7.0,16.0,25,0.00,,,0.00,842.000000,,2013-08-31 22:53:00,
2013-08-31 17:03:00,74.0,36.0,-100.00,WNW,286,7.0,16.0,25,0.00,,,0.00,842.000000,,2013-08-31 23:03:00,
2013-08-31 17:42:00,74.0,38.0,-100.00,WNW,291,6.0,16.0,27,0.00,,,0.00,691.000000,,2013-08-31 23:42:00,
2013-08-31 17:52:00,74.0,38.0,-100.00,WNW,291,6.0,16.0,27,0.00,,,0.00,691.000000,,2013-08-31 23:52:00,
2013-08-31 18:01:00,74.0,38.0,-100.00,WNW,291,6.0,16.0,27,0.00,,,0.00,691.000000,,2013-09-01 00:01:00,
2013-08-31 18:42:00,72.0,37.0,-100.00,WNW,296,6.0,13.0,28,0.00,,,-99.99,504.000000,,2013-09-01 00:42:00,
2013-08-31 18:52:00,72.0,37.0,-100.00,WNW,296,6.0,13.0,28,0.00,,,-99.99,504.000000,,2013-09-01 00:52:00,
2013-08-31 19:02:00,72.0,37.0,-100.00,WNW,296,6.0,13.0,28,0.00,,,-99.99,504.000000,,2013-09-01 01:02:00,
2013-08-31 19:42:00,71.0,36.0,-100.00,North,354,5.0,11.0,28,0.00,,,0.00,133.000000,,2013-09-01 01:42:00,
2013-08-31 19:52:00,71.0,36.0,-100.00,North,354,5.0,11.0,28,0.00,,,0.00,133.000000,,2013-09-01 01:52:00,
2013-08-31 20:02:00,71.0,36.0,-100.00,North,354,5.0,11.0,28,0.00,,,0.00,133.000000,,2013-09-01 02:02:00,
2013-08-31 20:43:00,65.0,36.0,-100.00,North,11,6.0,8.0,34,0.00,,,0.00,48.000000,,2013-09-01 02:43:00,
2013-08-31 20:53:00,65.0,36.0,-100.00,North,11,6.0,8.0,34,0.00,,,0.00,48.000000,,2013-09-01 02:53:00,
2013-08-31 21:02:00,65.0,36.0,-100.00,North,11,6.0,8.0,34,0.00,,,0.00,48.000000,,2013-09-01 03:02:00,
2013-08-31 21:44:00,64.0,34.0,-100.00,North,8,6.0,10.0,32,0.00,,,0.00,2.000000,,2013-09-01 03:44:00,
2013-08-31 21:54:00,64.0,34.0,-100.00,North,8,6.0,10.0,32,0.00,,,0.00,2.000000,,2013-09-01 03:54:00,
2013-08-31 22:03:00,-999.0,-99.9,-100.00,North,8,6.0,10.0,-999,-99.99,,,-99.99,2.000000,,2013-09-01 04:03:00,
2013-08-31 22:43:00,64.0,32.0,-100.00,North,10,7.0,10.0,30,0.00,,,0.00,0.000000,,2013-09-01 04:43:00,
2013-08-31 22:54:00,64.0,32.0,-100.00,North,10,7.0,10.0,30,0.00,,,0.00,0.000000,,2013-09-01 04:54:00,
2013-08-31 23:03:00,64.0,32.0,-100.00,North,10,7.0,10.0,30,0.00,,,0.00,0.000000,,2013-09-01 05:03:00,
2013-08-31 23:43:00,62.0,35.0,-100.00,NNE,26,6.0,10.0,37,0.00,,,0.00,0.000000,,2013-09-01 05:43:00,
2013-08-31 23:52:00,62.0,35.0,-100.00,NNE,26,6.0,10.0,37,0.00,,,0.00,0.000000,,2013-09-01 05:52:00,